Piedmont, KS (67122)

4:12 PM CDT on August 23, 2016 (GMT -0500)
NonFedAWOS | | Change Station

Elev 1208 ft 37.85 °N, 96.29 °W | Updated 44 minutes ago

Partly Cloudy
Partly Cloudy
86 °F
Feels Like 93 °F
N
18
Wind Variable Wind from South
Gusts 28.0 mph

Today
High -- | Low -- °F
--% Chance of Precip.
Yesterday
High -- | Low -- °F
Precip. -- in
Pressure 29.87 in
Visibility 10.0 miles
Clouds Few 4000 ft
Heat Index 93 °F
Dew Point 73 °F
Humidity 66%
Rainfall in
Snow Depth Not available.
6:48 AM 8:06 PM
Waning Gibbous, 64% visible
METAR KAAO 232054Z AUTO 18022G29KT 10SM FEW040 31/22 A2991 RMK AO2 PK WND 17033/2032 SLP114 T03060222 58015
Pressure 29.87 in
Visibility 10.0 miles
Clouds Few 4000 ft
Heat Index 93 °F
Dew Point 73 °F
Humidity 66%
Rainfall in
Snow Depth Not available.
6:48 AM 8:06 PM
Waning Gibbous, 64% visible
METAR KAAO 232054Z AUTO 18022G29KT 10SM FEW040 31/22 A2991 RMK AO2 PK WND 17033/2032 SLP114 T03060222 58015

10-Day Weather Forecast

Almanac

Astronomy

Aug. 23, 2016 Rise Set
Actual Time
Civil Twilight
Nautical Twilight
Astronomical Twilight
Moon
Length of Visible Light
Length of Day
Tomorrow will be .
, % of the Moon is Illuminated

Today's Extremes

State Highs State Lows

Community

WunderPhotos

Upload Photos

1,934,456 photos uploaded!

WunderBlog® & News

Nearby

Air Quality

  Air Quality AQ Index Pollutant
Not available.

Snow Depth

Station Depth Elevation

Earthquake Activity

City Distance Mag. Time & Date
Minimum magnitude displayed is 2.5.

Coastal Water Temperatures

Place Temperature

Stations

Nearby Weather Stations

Station Location Temp. Windchill Dew Point Humidity Wind Precip. Elev Updated Type
                   

Watches & Warnings

There are currently no watches in effect.